createdAt,value
2022-09-14T00:01:41.936Z,15.45
2022-09-14T00:04:17.066Z,15.40
2022-09-14T00:06:50.361Z,15.31
2022-09-14T00:09:25.191Z,15.24
2022-09-14T00:11:57.381Z,15.18
2022-09-14T00:14:29.418Z,15.14
2022-09-14T00:17:01.458Z,15.06
2022-09-14T00:19:33.456Z,15.00
2022-09-14T00:22:06.897Z,14.95
2022-09-14T00:24:38.863Z,14.87
2022-09-14T00:27:11.482Z,14.83
2022-09-14T00:29:43.617Z,14.78
2022-09-14T00:32:16.531Z,14.71
2022-09-14T00:34:48.760Z,14.65
2022-09-14T00:37:21.239Z,14.59
2022-09-14T00:39:53.372Z,14.54
2022-09-14T00:42:25.397Z,14.51
2022-09-14T00:45:05.934Z,14.45
2022-09-14T00:47:38.352Z,14.38
2022-09-14T00:50:11.363Z,14.37
2022-09-14T00:52:48.756Z,14.28
2022-09-14T00:55:24.163Z,14.30
2022-09-14T00:57:56.808Z,14.31
2022-09-14T01:00:31.237Z,14.31
2022-09-14T01:03:03.352Z,14.30
2022-09-14T01:05:48.759Z,14.33
2022-09-14T01:08:33.495Z,14.34
2022-09-14T01:11:18.766Z,14.34
2022-09-14T01:14:00.049Z,14.35
2022-09-14T03:27:22.255Z,14.72
2022-09-14T03:29:54.184Z,14.72
2022-09-14T03:32:26.371Z,14.74
2022-09-14T03:34:58.844Z,14.74
2022-09-14T03:37:30.812Z,14.72
2022-09-14T03:40:03.109Z,14.71
2022-09-14T03:42:35.331Z,14.68
2022-09-14T03:45:08.798Z,14.64
2022-09-14T03:47:45.212Z,14.62
2022-09-14T03:50:19.724Z,14.59
2022-09-14T03:52:51.712Z,14.59
2022-09-14T03:55:23.781Z,14.57
2022-09-14T03:57:57.595Z,14.57
2022-09-14T04:00:29.740Z,14.57
2022-09-14T04:03:03.918Z,14.55
2022-09-14T04:05:36.777Z,14.55
2022-09-14T04:08:09.117Z,14.55
2022-09-14T04:10:42.977Z,14.55
2022-09-14T04:13:15.498Z,14.54
2022-09-14T04:15:56.718Z,14.54
2022-09-14T04:18:29.403Z,14.54
2022-09-14T04:21:07.986Z,14.57
2022-09-14T04:24:02.966Z,14.57
2022-09-14T04:26:35.789Z,14.57
2022-09-14T04:29:09.258Z,14.59
2022-09-14T04:31:42.037Z,14.61
2022-09-14T04:34:15.926Z,14.62
2022-09-14T04:36:47.968Z,14.62
2022-09-14T04:39:20.294Z,14.64
2022-09-14T04:41:52.563Z,14.65
2022-09-14T04:44:24.485Z,14.65
2022-09-14T04:46:56.723Z,14.67
2022-09-14T04:49:28.969Z,14.67
2022-09-14T04:52:01.477Z,14.68
2022-09-14T04:54:34.650Z,14.71
2022-09-14T04:57:07.065Z,14.71
2022-09-14T04:59:39.177Z,14.74
2022-09-14T05:02:11.499Z,14.76
2022-09-14T05:04:43.794Z,14.78
2022-09-14T05:07:16.603Z,14.80
2022-09-14T05:09:48.667Z,14.85
2022-09-14T05:12:24.161Z,14.87
2022-09-14T05:14:56.124Z,14.92
2022-09-14T05:17:28.361Z,14.95
2022-09-14T05:20:00.416Z,15.03
2022-09-14T05:22:32.594Z,15.10
2022-09-14T05:25:04.679Z,15.14
2022-09-14T05:27:36.915Z,15.14
2022-09-14T05:30:11.246Z,15.18
2022-09-14T05:32:43.721Z,15.21
2022-09-14T05:35:16.064Z,15.21
2022-09-14T05:37:48.429Z,15.24
2022-09-14T05:40:20.710Z,15.27
2022-09-14T05:42:53.346Z,15.30
2022-09-14T05:45:25.480Z,15.31
2022-09-14T05:47:57.742Z,15.31
2022-09-14T05:50:29.983Z,15.34
2022-09-14T05:53:04.821Z,15.37
2022-09-14T05:55:37.947Z,15.38
2022-09-14T05:58:11.027Z,15.37
2022-09-14T06:00:43.097Z,15.38
2022-09-14T06:03:15.205Z,15.40
2022-09-14T06:05:47.841Z,15.41
2022-09-14T06:08:20.142Z,15.42
2022-09-14T06:10:52.639Z,15.44
2022-09-14T06:13:24.964Z,15.45
2022-09-14T06:15:57.685Z,15.47
2022-09-14T06:18:30.532Z,15.45
2022-09-14T06:21:03.318Z,15.44
2022-09-14T06:23:35.913Z,15.50
2022-09-14T06:26:08.773Z,15.48
2022-09-14T06:28:41.375Z,15.50
2022-09-14T06:31:18.942Z,15.51
2022-09-14T06:33:52.376Z,15.52
2022-09-14T06:36:28.800Z,15.52
2022-09-14T06:39:02.196Z,15.57
2022-09-14T06:41:34.649Z,15.58
2022-09-14T06:44:06.991Z,15.58
2022-09-14T06:46:45.692Z,15.57
2022-09-14T06:49:23.520Z,15.55
2022-09-14T06:51:57.696Z,15.55
2022-09-14T06:54:30.019Z,15.58
2022-09-14T06:57:02.042Z,15.55
2022-09-14T06:59:34.101Z,15.57
2022-09-14T07:02:06.188Z,15.58
2022-09-14T07:04:38.742Z,15.59
2022-09-14T07:07:11.115Z,15.59
2022-09-14T07:09:43.135Z,15.61
2022-09-14T07:12:17.200Z,15.64
2022-09-14T07:14:49.510Z,15.68
2022-09-14T07:17:21.681Z,15.76
2022-09-14T07:19:54.432Z,15.92
2022-09-14T07:22:26.633Z,16.12
2022-09-14T07:24:58.773Z,16.28
2022-09-14T07:27:31.169Z,16.47
2022-09-14T07:30:03.536Z,16.63
2022-09-14T07:32:35.614Z,16.80
2022-09-14T07:35:08.638Z,16.93
2022-09-14T07:37:40.579Z,17.04
2022-09-14T07:40:13.936Z,17.15
2022-09-14T07:42:57.294Z,17.24
2022-09-14T07:45:30.478Z,17.31
2022-09-14T07:48:02.705Z,17.31
2022-09-14T07:50:34.858Z,17.34
2022-09-14T07:53:07.395Z,17.37
2022-09-14T07:55:42.934Z,17.49
2022-09-14T07:58:15.056Z,17.65
2022-09-14T08:00:48.609Z,17.72
2022-09-14T08:03:20.727Z,17.92
2022-09-14T08:05:58.752Z,17.89
2022-09-14T08:08:32.555Z,17.82
2022-09-14T08:11:07.151Z,17.93
2022-09-14T08:13:40.498Z,17.94
2022-09-14T08:16:13.773Z,18.03
2022-09-14T08:18:49.700Z,18.56
2022-09-14T08:21:21.670Z,19.49
2022-09-14T08:23:54.139Z,20.90
2022-09-14T08:26:28.353Z,22.22
2022-09-14T08:29:00.875Z,22.72
2022-09-14T08:31:37.483Z,22.59
2022-09-14T08:34:09.791Z,22.11
2022-09-14T08:36:43.631Z,21.76
2022-09-14T08:39:18.411Z,21.46
2022-09-14T08:41:55.499Z,21.10
2022-09-14T08:44:30.626Z,20.63
2022-09-14T08:47:05.164Z,20.25
2022-09-14T08:49:51.954Z,20.14
2022-09-14T08:52:31.239Z,21.31
2022-09-14T08:55:19.499Z,22.97
2022-09-14T08:57:57.249Z,24.86
2022-09-14T09:00:38.691Z,26.10
2022-09-14T09:03:48.707Z,27.03
2022-09-14T09:06:29.881Z,28.31
2022-09-14T09:09:07.834Z,28.39
2022-09-14T09:11:44.281Z,27.79
2022-09-14T09:14:23.057Z,27.24
2022-09-14T09:16:58.580Z,27.11
2022-09-14T09:19:35.355Z,26.32
2022-09-14T09:22:14.484Z,25.52
2022-09-14T09:24:54.722Z,24.75
2022-09-14T09:27:27.986Z,24.32
2022-09-14T09:29:59.985Z,24.18
2022-09-14T09:32:32.618Z,23.69
2022-09-14T09:35:27.454Z,22.97
2022-09-14T09:38:25.001Z,22.36
2022-09-14T09:41:00.089Z,22.01
2022-09-14T09:43:48.828Z,21.99
2022-09-14T09:46:21.488Z,22.22
2022-09-14T09:48:53.772Z,22.55
2022-09-14T09:51:32.096Z,22.87
2022-09-14T09:54:09.892Z,23.04
2022-09-14T09:56:53.620Z,23.03
2022-09-14T09:59:31.741Z,22.80
2022-09-14T10:05:20.661Z,22.39
2022-09-14T10:07:57.699Z,22.59
2022-09-14T10:10:44.844Z,22.93
2022-09-14T10:13:28.813Z,23.20
2022-09-14T10:16:17.471Z,23.35
2022-09-14T10:18:52.127Z,23.49
2022-09-14T10:21:27.068Z,23.63
2022-09-14T10:24:20.696Z,23.76
2022-09-14T10:26:52.805Z,23.89
2022-09-14T10:29:43.778Z,23.99
2022-09-14T10:32:24.337Z,24.20
2022-09-14T10:34:56.403Z,24.35
2022-09-14T10:37:51.317Z,24.56
2022-09-14T10:40:32.469Z,24.87
2022-09-14T10:43:15.877Z,25.11
2022-09-14T10:45:52.998Z,25.18
2022-09-14T10:48:43.831Z,25.04
2022-09-14T10:51:33.360Z,24.90
2022-09-14T10:54:17.435Z,24.58
2022-09-14T10:57:02.248Z,24.51
2022-09-14T10:59:43.178Z,24.47
2022-09-14T11:02:45.766Z,24.30
2022-09-14T11:05:26.881Z,24.04
2022-09-14T11:08:13.636Z,23.76
2022-09-14T11:10:58.668Z,23.55
2022-09-14T11:13:47.366Z,23.30
2022-09-14T11:16:40.850Z,22.94
2022-09-14T11:19:24.480Z,22.65
2022-09-14T11:22:02.470Z,22.38
2022-09-14T11:24:41.203Z,22.24
2022-09-14T11:27:20.707Z,22.08
2022-09-14T11:29:56.622Z,21.99
2022-09-14T11:32:32.981Z,22.10
2022-09-14T11:35:14.292Z,22.27
2022-09-14T11:37:51.481Z,22.46
2022-09-14T11:40:30.255Z,22.62
2022-09-14T11:43:10.093Z,22.75
2022-09-14T11:45:48.367Z,22.93
2022-09-14T11:48:42.825Z,23.05
2022-09-14T11:51:21.392Z,23.27
2022-09-14T11:53:53.382Z,23.42
2022-09-14T11:56:31.449Z,23.53
2022-09-14T11:59:07.503Z,23.56
2022-09-14T12:01:41.349Z,23.56
2022-09-14T12:04:16.649Z,23.52
2022-09-14T12:06:56.955Z,23.48
2022-09-14T12:09:43.128Z,23.45
2022-09-14T12:12:41.734Z,23.41
2022-09-14T12:15:23.321Z,23.45
2022-09-14T12:18:17.941Z,23.42
2022-09-14T12:21:00.588Z,23.41
2022-09-14T12:23:57.288Z,23.41
2022-09-14T12:26:36.361Z,23.39
2022-09-14T12:29:32.915Z,23.31
2022-09-14T12:32:27.859Z,23.09
2022-09-14T12:35:34.789Z,22.80
2022-09-14T12:38:38.045Z,22.46
2022-09-14T12:41:40.613Z,22.31
2022-09-14T12:44:36.392Z,22.22
2022-09-14T15:31:15.159Z,19.70
2022-09-14T15:33:46.108Z,19.65
2022-09-14T15:36:34.793Z,19.56
2022-09-14T15:39:04.645Z,19.48
2022-09-14T15:41:33.427Z,19.38
2022-09-14T15:44:03.627Z,19.32
2022-09-14T15:46:33.460Z,19.25
2022-09-14T15:49:06.225Z,19.18
2022-09-14T15:51:34.754Z,19.07
2022-09-14T15:54:04.281Z,19.03
2022-09-14T15:56:33.407Z,18.96
2022-09-14T15:59:02.857Z,18.87
2022-09-14T16:01:33.181Z,18.83
2022-09-14T16:04:10.996Z,18.76
2022-09-14T16:06:41.528Z,18.69
2022-09-14T16:09:12.157Z,18.65
2022-09-14T16:11:41.352Z,18.56
2022-09-14T16:14:11.089Z,18.51
2022-09-14T16:16:40.010Z,18.48
2022-09-14T16:19:11.494Z,18.40
2022-09-14T16:21:41.370Z,18.35
2022-09-14T16:24:14.507Z,18.25
2022-09-14T16:26:44.229Z,18.21
2022-09-14T16:29:16.035Z,18.17
2022-09-14T16:31:46.503Z,18.08
2022-09-14T16:34:17.227Z,18.07
2022-09-14T16:36:47.812Z,17.96
2022-09-14T16:39:20.232Z,17.93
2022-09-14T16:41:49.746Z,17.86
2022-09-14T16:44:21.412Z,17.76
2022-09-14T16:46:51.263Z,17.69
2022-09-14T16:49:23.607Z,17.61
2022-09-14T16:51:56.883Z,17.53
2022-09-14T16:54:26.545Z,17.48
2022-09-14T16:56:57.397Z,17.38
2022-09-14T16:59:26.174Z,17.30
2022-09-14T17:01:55.553Z,17.24
2022-09-14T17:04:25.317Z,17.14
2022-09-14T17:06:55.577Z,17.07
2022-09-14T17:09:26.307Z,17.02
2022-09-14T17:11:56.423Z,16.93
2022-09-14T17:14:28.250Z,16.86
2022-09-14T17:16:58.469Z,16.80
2022-09-14T17:19:27.952Z,16.76
2022-09-14T17:21:57.353Z,16.69
2022-09-14T17:24:26.465Z,16.63
2022-09-14T17:26:55.370Z,16.56
2022-09-14T17:29:24.371Z,16.52
2022-09-14T17:31:54.967Z,16.47
2022-09-14T17:34:24.064Z,16.41
2022-09-14T17:36:53.189Z,16.37
2022-09-14T17:39:22.054Z,16.32
2022-09-14T17:41:50.847Z,16.28
2022-09-14T17:44:20.142Z,16.24
2022-09-14T17:46:52.836Z,16.19
2022-09-14T17:49:22.732Z,16.12
2022-09-14T17:51:51.936Z,16.07
2022-09-14T17:54:20.863Z,16.03
2022-09-14T17:56:50.536Z,16.01
2022-09-14T17:59:20.728Z,15.96
2022-09-14T18:01:50.366Z,15.92
2022-09-14T18:04:20.129Z,15.86
2022-09-14T18:06:49.654Z,15.83
2022-09-14T18:09:22.460Z,15.79
2022-09-14T18:11:54.843Z,15.75
2022-09-14T18:14:24.758Z,15.70
2022-09-14T18:16:53.438Z,15.66
2022-09-14T18:19:22.327Z,15.65
2022-09-14T18:21:52.797Z,15.57
2022-09-14T18:24:22.435Z,15.55
2022-09-14T18:26:51.520Z,15.54
2022-09-14T18:29:22.950Z,15.47
2022-09-14T18:31:52.724Z,15.45
2022-09-14T18:34:23.162Z,15.41
2022-09-14T18:36:52.771Z,15.41
2022-09-14T18:39:21.757Z,15.37
2022-09-14T18:41:53.139Z,15.34
2022-09-14T18:44:23.289Z,15.30
2022-09-14T18:46:52.592Z,15.30
2022-09-14T18:49:21.491Z,15.27
2022-09-14T18:51:50.552Z,15.24
2022-09-14T18:54:20.203Z,15.20
2022-09-14T18:56:51.067Z,15.18
2022-09-14T18:59:19.830Z,15.15
2022-09-14T19:01:48.427Z,15.14
2022-09-14T19:04:17.888Z,15.11
2022-09-14T19:06:46.887Z,15.10
2022-09-14T19:09:16.116Z,15.06
2022-09-14T19:11:45.093Z,15.03
2022-09-14T19:14:14.842Z,14.99
2022-09-14T19:16:43.328Z,14.96
2022-09-14T19:19:14.609Z,14.90
2022-09-14T19:21:45.056Z,14.86
2022-09-14T19:24:15.811Z,14.82
2022-09-14T19:26:49.229Z,14.76
2022-09-14T19:29:23.114Z,14.75
2022-09-14T19:31:52.718Z,14.76
2022-09-14T19:34:22.769Z,14.69
2022-09-14T19:36:53.195Z,14.67
2022-09-14T19:39:23.668Z,14.67
2022-09-14T19:41:52.621Z,14.65
2022-09-14T19:44:22.907Z,14.58
2022-09-14T19:46:52.029Z,14.57
2022-09-14T19:49:22.949Z,14.55
2022-09-14T19:51:52.518Z,14.51
2022-09-14T19:54:21.325Z,14.52
2022-09-14T19:56:54.101Z,14.52
2022-09-14T19:59:23.462Z,14.52
2022-09-14T20:01:52.273Z,14.50
2022-09-14T20:04:23.116Z,14.47
2022-09-14T20:06:51.727Z,14.47
2022-09-14T20:09:22.239Z,14.48
2022-09-14T20:11:52.536Z,14.44
2022-09-14T20:14:23.976Z,14.42
2022-09-14T20:16:54.482Z,14.40
2022-09-14T20:19:25.065Z,14.41
2022-09-14T20:21:54.333Z,14.37
2022-09-14T20:24:25.634Z,14.35
2022-09-14T20:26:56.628Z,14.37
2022-09-14T20:29:28.885Z,14.34
2022-09-14T20:31:58.412Z,14.34
2022-09-14T20:34:27.034Z,14.31
2022-09-14T20:36:55.929Z,14.30
2022-09-14T20:39:25.086Z,14.33
2022-09-14T20:41:53.956Z,14.25
2022-09-14T20:44:23.264Z,14.27
2022-09-14T20:46:52.767Z,14.27
2022-09-14T20:49:23.348Z,14.25
2022-09-14T20:51:53.744Z,14.24
2022-09-14T20:54:24.511Z,14.24
2022-09-14T20:56:53.206Z,14.24
2022-09-14T20:59:22.003Z,14.23
2022-09-14T21:01:52.244Z,14.21
2022-09-14T21:04:23.308Z,14.21
2022-09-14T21:06:53.994Z,14.21
2022-09-14T21:09:25.077Z,14.21
2022-09-14T21:11:54.617Z,14.23
2022-09-14T21:14:23.339Z,14.24
2022-09-14T21:16:56.069Z,14.25
2022-09-14T21:19:27.911Z,14.27
2022-09-14T21:21:56.806Z,14.25
2022-09-14T21:24:26.210Z,14.30
2022-09-14T21:26:56.533Z,14.30
2022-09-14T21:29:25.380Z,14.31
2022-09-14T21:31:54.068Z,14.33
2022-09-14T21:34:22.636Z,14.33
2022-09-14T21:36:52.572Z,14.34
2022-09-14T21:39:24.687Z,14.34
2022-09-14T21:41:58.880Z,14.35
2022-09-14T21:44:32.903Z,14.33
2022-09-14T21:47:02.506Z,14.35
2022-09-14T21:49:31.339Z,14.35
2022-09-14T21:52:00.052Z,14.37
2022-09-14T21:54:28.592Z,14.37
2022-09-14T21:56:57.196Z,14.37
2022-09-14T21:59:25.667Z,14.35
2022-09-14T22:01:54.625Z,14.35
2022-09-14T22:04:24.913Z,14.35
2022-09-14T22:06:54.467Z,14.35
2022-09-14T22:09:26.619Z,14.33
2022-09-14T22:11:56.339Z,14.37
2022-09-14T22:14:28.986Z,14.35
2022-09-14T22:16:57.771Z,14.33
2022-09-14T22:19:28.339Z,14.34
2022-09-14T22:21:57.515Z,14.35
2022-09-14T22:24:33.467Z,14.34
2022-09-14T22:27:05.559Z,14.37
2022-09-14T22:29:34.210Z,14.35
2022-09-14T22:32:10.309Z,14.34
2022-09-14T22:34:40.955Z,14.35
2022-09-14T22:37:10.344Z,14.34
2022-09-14T22:39:38.771Z,14.35
2022-09-14T22:42:07.616Z,14.35
2022-09-14T22:44:36.154Z,14.34
2022-09-14T22:47:05.292Z,14.35
2022-09-14T22:49:33.780Z,14.33
2022-09-14T22:52:03.004Z,14.30
2022-09-14T22:54:31.465Z,14.31
2022-09-14T22:57:00.053Z,14.30
2022-09-14T22:59:28.634Z,14.27
2022-09-14T23:01:57.162Z,14.25
2022-09-14T23:04:26.834Z,14.25
2022-09-14T23:06:55.328Z,14.28
2022-09-14T23:09:23.897Z,14.27
2022-09-14T23:11:52.442Z,14.24
2022-09-14T23:14:21.603Z,14.25
2022-09-14T23:16:50.359Z,14.25
2022-09-14T23:19:21.210Z,14.24
2022-09-14T23:21:50.091Z,14.23
2022-09-14T23:24:19.181Z,14.24
2022-09-14T23:26:47.942Z,14.23
2022-09-14T23:29:17.879Z,14.20
2022-09-14T23:31:46.312Z,14.19
2022-09-14T23:34:15.005Z,14.17
2022-09-14T23:36:43.535Z,14.19
2022-09-14T23:39:11.993Z,14.19
2022-09-14T23:41:40.786Z,14.20
2022-09-14T23:44:11.949Z,14.19
2022-09-14T23:46:40.875Z,14.19
2022-09-14T23:49:10.985Z,14.17
2022-09-14T23:51:39.663Z,14.20
2022-09-14T23:54:08.430Z,14.19
2022-09-14T23:56:38.206Z,14.20
2022-09-14T23:59:09.656Z,14.20
